Time;durP1;ratioP1;P1;durP2;ratioP2;P2;SDS_P1;SDS_P2;PMS_P1;PMS_P2;Temp;Humidity;BMP_temperature;BMP_pressure;BME280_temperature;BME280_humidity;BME280_pressure;Samples;Min_cycle;Max_cycle;Signal;HPM_P1;HPM_P2
2022/12/21 00:00:53;;;;;;;;;8.25;8.00;;;;;13.56;69.25;100554.38;5047356;28;45280;-63
2022/12/21 00:03:18;;;;;;;;;10.00;9.00;;;;;13.58;68.91;100557.81;5041431;28;61493;-64
2022/12/21 00:05:44;;;;;;;;;12.50;10.00;;;;;13.57;68.89;100556.09;5054165;28;45596;-61
2022/12/21 00:08:09;;;;;;;;;10.00;7.75;;;;;13.58;69.30;100565.69;5032530;28;45559;-61
2022/12/21 00:10:34;;;;;;;;;11.00;7.00;;;;;13.59;69.00;100563.91;5055250;28;46281;-61
2022/12/21 00:13:00;;;;;;;;;12.50;9.00;;;;;13.60;68.94;100557.75;5043012;28;45421;-62
2022/12/21 00:15:25;;;;;;;;;6.25;5.00;;;;;13.59;69.15;100559.50;5054736;28;62424;-62
2022/12/21 00:17:50;;;;;;;;;8.50;7.00;;;;;13.59;69.00;100564.75;5047471;28;61323;-63
2022/12/21 00:20:16;;;;;;;;;9.00;9.00;;;;;13.60;68.86;100565.63;5043829;28;59719;-62
2022/12/21 00:22:41;;;;;;;;;9.00;7.00;;;;;13.61;69.20;100577.84;5048113;28;55959;-62
2022/12/21 00:25:07;;;;;;;;;10.00;10.00;;;;;13.63;68.70;100576.00;5054163;28;46419;-62
2022/12/21 00:27:32;;;;;;;;;12.00;9.00;;;;;13.63;69.11;100566.38;5051873;28;45618;-62
2022/12/21 00:29:57;;;;;;;;;7.75;7.00;;;;;13.63;69.31;100574.25;5045300;28;47733;-62
2022/12/21 00:32:23;;;;;;;;;13.25;9.00;;;;;13.65;69.45;100561.00;5052106;28;56599;-62
2022/12/21 00:34:48;;;;;;;;;13.00;9.25;;;;;13.65;68.83;100561.00;5042089;28;54318;-63
2022/12/21 00:37:13;;;;;;;;;9.75;8.25;;;;;13.66;68.91;100557.47;5043927;28;63598;-63
2022/12/21 00:39:39;;;;;;;;;9.00;9.00;;;;;13.67;68.69;100548.69;5042290;28;45198;-62
2022/12/21 00:42:04;;;;;;;;;14.50;7.75;;;;;13.67;69.15;100552.16;5052155;28;45225;-62
2022/12/21 00:44:29;;;;;;;;;10.25;8.50;;;;;13.68;69.07;100558.25;5055671;28;45418;-63
2022/12/21 00:46:55;;;;;;;;;13.00;9.75;;;;;13.69;69.02;100557.34;5044031;28;59471;-63
2022/12/21 00:49:20;;;;;;;;;12.00;10.00;;;;;13.67;69.02;100562.69;5041574;28;57571;-63
2022/12/21 00:51:45;;;;;;;;;10.00;8.00;;;;;13.70;68.91;100560.81;5047987;28;62711;-64
2022/12/21 00:54:11;;;;;;;;;10.75;9.25;;;;;13.68;68.96;100555.63;5041661;28;60029;-63
2022/12/21 00:56:36;;;;;;;;;11.75;9.75;;;;;13.66;69.02;100566.22;5046934;28;60566;-67
2022/12/21 00:59:01;;;;;;;;;12.75;10.00;;;;;13.64;68.70;100561.94;5047033;28;64745;-62
2022/12/21 01:01:30;;;;;;;;;11.25;10.75;;;;;13.67;69.09;100570.56;5043450;28;48518;-62
2022/12/21 01:03:55;;;;;;;;;11.00;10.75;;;;;13.66;68.97;100568.84;5044182;28;45469;-63
2022/12/21 01:06:33;;;;;;;;;9.00;8.50;;;;;13.67;69.47;100570.56;5054259;28;45389;-62
2022/12/21 01:08:59;;;;;;;;;10.00;8.25;;;;;13.67;69.28;100577.59;5059160;28;46439;-62
2022/12/21 01:11:27;;;;;;;;;9.25;7.50;;;;;13.67;69.37;100578.44;5048630;28;45303;-63
2022/12/21 01:13:53;;;;;;;;;9.75;8.75;;;;;13.68;69.54;100581.94;5045684;28;45284;-63
2022/12/21 01:16:25;;;;;;;;;12.25;10.00;;;;;13.68;69.40;100576.66;5048259;28;45542;-62
2022/12/21 01:18:51;;;;;;;;;14.50;8.75;;;;;13.70;69.12;100579.25;5047272;28;46069;-63
2022/12/21 01:21:24;;;;;;;;;12.25;10.00;;;;;13.70;68.99;100577.44;5050481;28;61118;-62
2022/12/21 01:23:50;;;;;;;;;11.25;8.50;;;;;13.72;69.08;100582.66;5050217;28;45439;-63
2022/12/21 01:26:16;;;;;;;;;8.00;6.50;;;;;13.72;69.64;100582.66;5048774;28;45403;-63
2022/12/21 01:28:42;;;;;;;;;9.75;7.00;;;;;13.72;69.29;100583.50;5051415;28;46291;-63
2022/12/21 01:31:07;;;;;;;;;9.00;6.50;;;;;13.74;69.15;100586.94;5053718;28;45238;-62
2022/12/21 01:33:33;;;;;;;;;17.00;10.25;;;;;13.75;69.28;100593.06;5052677;28;60174;-62
2022/12/21 01:36:06;;;;;;;;;8.50;8.50;;;;;13.77;69.19;100591.22;5053665;28;45361;-62
2022/12/21 01:38:31;;;;;;;;;9.00;8.00;;;;;13.77;69.09;100592.06;5049701;28;45233;-62
2022/12/21 01:40:56;;;;;;;;;11.25;10.00;;;;;13.78;68.89;100587.66;5053670;28;46055;-63
2022/12/21 01:43:48;;;;;;;;;9.25;6.75;;;;;13.79;69.18;100592.00;5060005;28;45416;-63
2022/12/21 01:46:36;;;;;;;;;5.75;5.75;;;;;13.81;68.96;100592.78;5042143;28;45408;-62
2022/12/21 01:49:10;;;;;;;;;10.75;7.25;;;;;13.80;69.16;100596.34;5049040;28;46215;-63
2022/12/21 01:51:37;;;;;;;;;8.75;7.50;;;;;13.81;68.81;100608.56;5049314;28;45299;-63
2022/12/21 01:54:15;;;;;;;;;8.25;8.00;;;;;13.83;69.00;100612.00;5042913;28;53735;-63
2022/12/21 01:56:43;;;;;;;;;8.75;7.50;;;;;13.84;68.70;100619.81;5046743;28;45424;-63
2022/12/21 01:59:14;;;;;;;;;8.00;8.00;;;;;13.82;69.09;100608.50;5048101;28;45381;-63
2022/12/21 02:01:39;;;;;;;;;7.25;6.75;;;;;13.84;68.76;100605.81;5036275;28;45545;-63
2022/12/21 02:04:06;;;;;;;;;6.50;5.00;;;;;13.82;68.58;100618.16;5046045;28;54561;-62
2022/12/21 02:06:37;;;;;;;;;9.50;6.00;;;;;13.81;68.72;100624.34;5045933;28;45343;-63
2022/12/21 02:09:02;;;;;;;;;7.00;6.00;;;;;13.80;68.82;100635.78;5057563;28;46372;-62
2022/12/21 02:11:28;;;;;;;;;7.25;5.00;;;;;13.74;68.31;100634.28;5046307;28;49976;-62
2022/12/21 02:13:53;;;;;;;;;7.00;5.00;;;;;13.71;68.17;100644.94;5053432;28;45198;-62
2022/12/21 02:16:21;;;;;;;;;3.00;3.00;;;;;13.63;67.53;100640.00;5041755;28;45540;-62
2022/12/21 02:18:53;;;;;;;;;4.25;4.00;;;;;13.56;67.59;100648.19;5046355;28;45438;-62
2022/12/21 02:22:00;;;;;;;;;3.50;3.00;;;;;13.53;67.44;100646.53;5054503;28;45677;-63
2022/12/21 02:24:49;;;;;;;;;4.00;2.00;;;;;13.48;67.33;100641.47;5011073;28;45475;-63
2022/12/21 02:27:20;;;;;;;;;1.00;1.00;;;;;13.45;66.80;100636.31;5045831;28;45261;-63
2022/12/21 02:30:07;;;;;;;;;2.00;2.00;;;;;13.39;66.99;100623.44;5055394;28;45584;-63
2022/12/21 02:32:54;;;;;;;;;4.00;2.25;;;;;13.37;66.64;100629.66;5048989;28;45351;-62
2022/12/21 02:35:31;;;;;;;;;4.00;3.00;;;;;13.33;66.52;100628.06;5045538;28;45701;-62
2022/12/21 02:38:09;;;;;;;;;4.00;3.00;;;;;13.31;66.34;100625.50;5044899;28;45572;-62
2022/12/21 02:41:02;;;;;;;;;3.75;2.00;;;;;13.28;66.52;100625.63;5052327;28;46235;-62
2022/12/21 02:44:14;;;;;;;;;4.00;3.00;;;;;13.22;66.25;100624.06;5053949;28;45255;-63
2022/12/21 02:47:18;;;;;;;;;6.00;3.00;;;;;13.17;66.20;100625.16;5043124;28;45220;-62
2022/12/21 02:49:49;;;;;;;;;3.00;3.00;;;;;13.12;66.08;100625.38;4991736;28;45515;-62
2022/12/21 02:52:21;;;;;;;;;4.00;3.00;;;;;13.08;66.24;100635.16;4995264;28;46406;-62
2022/12/21 02:54:47;;;;;;;;;3.00;2.00;;;;;13.06;66.21;100639.56;5023202;28;45513;-63
2022/12/21 02:57:12;;;;;;;;;3.75;1.75;;;;;13.03;66.25;100636.22;5055316;28;45280;-62
2022/12/21 02:59:44;;;;;;;;;1.00;1.00;;;;;12.99;66.36;100645.13;5047450;28;45277;-62
2022/12/21 03:02:36;;;;;;;;;1.00;1.00;;;;;12.94;65.86;100645.31;5049468;28;45267;-62
2022/12/21 03:05:47;;;;;;;;;3.25;2.00;;;;;12.90;66.38;100641.09;5048170;28;46451;-63
2022/12/21 03:08:24;;;;;;;;;1.00;1.00;;;;;12.89;66.13;100644.63;4996206;28;45467;-63
2022/12/21 03:10:59;;;;;;;;;1.75;1.75;;;;;12.89;66.33;100649.88;5041041;28;45640;-63
2022/12/21 03:13:40;;;;;;;;;3.00;2.00;;;;;12.86;66.17;100645.59;5042638;28;45510;-63
2022/12/21 03:16:23;;;;;;;;;2.50;1.00;;;;;12.83;66.14;100650.13;5044973;28;45286;-64
2022/12/21 03:19:10;;;;;;;;;1.00;1.00;;;;;12.80;65.74;100663.34;5046433;28;45525;-64
2022/12/21 03:21:43;;;;;;;;;2.00;2.00;;;;;12.77;66.27;100659.09;5046199;28;45545;-62
2022/12/21 03:24:20;;;;;;;;;1.00;1.00;;;;;12.78;66.21;100659.94;5049086;28;46538;-64
2022/12/21 03:26:59;;;;;;;;;1.00;1.00;;;;;12.77;65.58;100655.63;5050009;28;45197;-64
2022/12/21 03:29:30;;;;;;;;;1.25;1.00;;;;;12.72;65.42;100651.38;5053271;28;45313;-66
2022/12/21 03:32:12;;;;;;;;;1.50;0.00;;;;;12.67;65.61;100657.72;5048855;28;46319;-64
2022/12/21 03:34:41;;;;;;;;;0.75;0.75;;;;;12.64;65.44;100649.94;5041090;28;45560;-63
2022/12/21 03:37:23;;;;;;;;;0.00;0.00;;;;;12.60;65.42;100656.22;5047978;28;45415;-62
2022/12/21 03:39:55;;;;;;;;;0.00;0.00;;;;;12.57;65.72;100661.59;5045001;28;45443;-62
2022/12/21 03:42:28;;;;;;;;;0.50;0.50;;;;;12.52;65.55;100665.25;5051175;28;45463;-62
2022/12/21 03:44:58;;;;;;;;;1.00;1.00;;;;;12.51;65.84;100668.75;5057104;28;46323;-62
2022/12/21 03:47:33;;;;;;;;;0.75;0.75;;;;;12.48;65.40;100661.03;5045346;28;45359;-63
2022/12/21 03:50:06;;;;;;;;;1.00;1.00;;;;;12.48;65.31;100657.53;5046264;28;45506;-62
2022/12/21 03:52:48;;;;;;;;;0.00;0.00;;;;;12.45;65.12;100658.50;5043486;28;45439;-62
2022/12/21 03:55:21;;;;;;;;;1.00;0.00;;;;;12.45;65.56;100655.88;5048380;28;45232;-62
2022/12/21 03:57:47;;;;;;;;;1.75;1.00;;;;;12.44;65.48;100659.41;5048602;28;45399;-62
2022/12/21 04:00:13;;;;;;;;;0.00;0.00;;;;;12.44;65.72;100667.28;5040203;28;61619;-63
2022/12/21 04:02:55;;;;;;;;;1.75;1.00;;;;;12.46;65.41;100657.56;5042239;28;45268;-62
2022/12/21 04:05:20;;;;;;;;;0.50;0.50;;;;;12.48;65.32;100663.66;5046307;28;46304;-63
2022/12/21 04:07:47;;;;;;;;;2.25;0.00;;;;;12.48;65.19;100665.41;5053547;28;45218;-62
2022/12/21 04:10:15;;;;;;;;;1.00;1.00;;;;;12.45;65.27;100666.38;5055283;28;45257;-62
2022/12/21 04:12:41;;;;;;;;;0.00;0.00;;;;;12.45;65.56;100660.28;5059777;28;45369;-62
2022/12/21 04:15:08;;;;;;;;;1.00;0.75;;;;;12.45;65.45;100671.63;5051222;28;53183;-63
2022/12/21 04:17:33;;;;;;;;;0.25;0.25;;;;;12.44;65.08;100674.31;5042973;28;45432;-62
2022/12/21 04:19:59;;;;;;;;;0.75;0.75;;;;;12.43;65.16;100672.56;5050749;28;45297;-63
2022/12/21 04:28:08;;;;;;;;;1.00;1.00;;;;;12.44;65.57;100690.03;5043645;28;45179;-62
2022/12/21 04:30:35;;;;;;;;;0.25;0.25;;;;;12.42;65.66;100694.50;5052437;28;45706;-62
2022/12/21 04:33:00;;;;;;;;;1.00;0.00;;;;;12.42;65.34;100687.47;5050166;28;45338;-62
2022/12/21 04:35:26;;;;;;;;;1.00;1.00;;;;;12.41;65.04;100691.03;5051884;28;60842;-62
2022/12/21 04:37:51;;;;;;;;;1.00;1.00;;;;;12.41;65.18;100677.91;5040854;28;62766;-62
2022/12/21 04:40:16;;;;;;;;;2.00;1.00;;;;;12.42;65.38;100687.47;5046719;28;60158;-62
2022/12/21 04:42:42;;;;;;;;;1.00;1.00;;;;;12.43;65.64;100680.44;5043184;28;45489;-62
2022/12/21 04:45:07;;;;;;;;;2.00;0.75;;;;;12.44;65.42;100685.66;5043964;28;47188;-62
2022/12/21 04:47:33;;;;;;;;;1.00;1.00;;;;;12.43;65.44;100688.31;5041479;28;45280;-63
2022/12/21 04:49:59;;;;;;;;;2.75;0.00;;;;;12.44;65.22;100688.28;5057471;28;45488;-62
2022/12/21 04:52:24;;;;;;;;;1.75;1.00;;;;;12.46;64.68;100698.72;5042436;28;51482;-63
2022/12/21 04:54:50;;;;;;;;;0.25;0.25;;;;;12.46;65.04;100693.47;5050071;28;64873;-62
2022/12/21 04:57:16;;;;;;;;;3.75;0.75;;;;;12.43;65.08;100691.81;5047296;28;47863;-62
2022/12/21 04:59:42;;;;;;;;;0.00;0.00;;;;;12.42;64.83;100705.84;5043854;28;45502;-62
2022/12/21 05:02:07;;;;;;;;;0.00;0.00;;;;;12.44;65.17;100696.16;5050788;28;45409;-63
2022/12/21 05:04:32;;;;;;;;;0.00;0.00;;;;;12.44;64.74;100697.91;5049676;28;46334;-62
2022/12/21 05:06:58;;;;;;;;;2.25;1.00;;;;;12.44;64.50;100703.16;5048467;28;45464;-62
2022/12/21 05:09:25;;;;;;;;;3.00;0.00;;;;;12.43;64.36;100704.06;5062279;28;46158;-62
2022/12/21 05:11:51;;;;;;;;;1.00;1.00;;;;;12.42;64.68;100711.09;5047326;28;45453;-62
2022/12/21 05:14:17;;;;;;;;;1.50;1.00;;;;;12.42;64.31;100712.88;5053031;28;46149;-62
2022/12/21 05:16:42;;;;;;;;;0.75;0.75;;;;;12.38;64.41;100706.88;5047363;28;60607;-62
2022/12/21 05:19:07;;;;;;;;;0.75;0.75;;;;;12.37;64.62;100707.78;5049570;28;49553;-62
2022/12/21 05:21:33;;;;;;;;;1.00;1.00;;;;;12.34;63.80;100711.38;5056979;28;45439;-62
2022/12/21 05:23:58;;;;;;;;;0.75;0.00;;;;;12.31;63.90;100710.63;5050748;28;63548;-62
2022/12/21 05:26:23;;;;;;;;;0.50;0.50;;;;;12.28;64.03;100716.81;5052269;28;63237;-63
2022/12/21 05:28:49;;;;;;;;;2.00;0.00;;;;;12.25;63.87;100702.94;5051663;28;62230;-62
2022/12/21 05:31:15;;;;;;;;;0.75;0.75;;;;;12.23;64.06;100705.63;5048727;28;45401;-62
2022/12/21 05:33:41;;;;;;;;;0.00;0.00;;;;;12.21;64.24;100710.06;5053594;28;45405;-63
2022/12/21 05:36:09;;;;;;;;;1.00;1.00;;;;;12.21;64.07;100709.22;5051478;28;45886;-63
2022/12/21 05:38:35;;;;;;;;;0.00;0.00;;;;;12.21;63.94;100706.59;5056170;28;45293;-63
2022/12/21 05:41:01;;;;;;;;;0.50;0.00;;;;;12.17;63.89;100710.25;5050129;28;45524;-63
2022/12/21 05:43:26;;;;;;;;;1.25;0.00;;;;;12.14;63.74;100700.69;5059094;28;45366;-62
2022/12/21 05:45:52;;;;;;;;;1.75;0.00;;;;;12.12;64.20;100705.13;5054282;28;55967;-63
2022/12/21 05:48:18;;;;;;;;;0.00;0.00;;;;;12.11;64.05;100701.66;5050049;28;45342;-62
2022/12/21 05:50:43;;;;;;;;;2.00;0.00;;;;;12.09;63.73;100715.72;5048359;28;45308;-62
2022/12/21 05:53:09;;;;;;;;;1.00;1.00;;;;;12.08;63.86;100714.03;5043049;28;54815;-62
2022/12/21 05:55:34;;;;;;;;;2.50;1.00;;;;;12.07;64.10;100713.16;5051386;28;45446;-62
2022/12/21 05:58:00;;;;;;;;;1.00;1.00;;;;;12.05;63.96;100714.97;5049724;28;45372;-62
2022/12/21 06:00:25;;;;;;;;;1.00;1.00;;;;;12.06;63.89;100721.09;5044015;28;45272;-63
2022/12/21 06:02:51;;;;;;;;;1.00;1.00;;;;;12.03;64.07;100716.78;5050326;28;55277;-62
2022/12/21 06:05:17;;;;;;;;;1.00;1.00;;;;;12.00;63.66;100713.41;5052953;28;53622;-62
2022/12/21 06:07:42;;;;;;;;;1.00;1.00;;;;;11.98;64.14;100712.63;5050295;28;54195;-62
2022/12/21 06:10:08;;;;;;;;;1.00;1.00;;;;;11.95;63.82;100711.81;5058667;28;45343;-63
2022/12/21 06:12:34;;;;;;;;;2.25;1.00;;;;;11.96;64.24;100717.91;5046940;28;46201;-62
2022/12/21 06:14:59;;;;;;;;;4.25;0.25;;;;;11.95;63.90;100714.44;5053198;28;45388;-62
2022/12/21 06:17:29;;;;;;;;;1.00;1.00;;;;;11.92;64.35;100709.28;5047004;28;55330;-62
2022/12/21 06:19:54;;;;;;;;;1.00;1.00;;;;;11.91;64.05;100718.06;5053250;28;45240;-62
2022/12/21 06:22:20;;;;;;;;;2.00;0.75;;;;;11.92;64.18;100709.28;5047332;28;47441;-62
2022/12/21 06:24:45;;;;;;;;;3.50;0.75;;;;;11.91;63.67;100714.56;5050472;28;48599;-62
2022/12/21 06:27:10;;;;;;;;;1.25;1.25;;;;;11.89;64.29;100719.00;5051593;28;47418;-62
2022/12/21 06:29:35;;;;;;;;;0.50;0.50;;;;;11.88;64.09;100723.38;5052723;28;63599;-62
2022/12/21 06:32:01;;;;;;;;;1.50;1.50;;;;;11.88;64.01;100726.00;5044451;28;68138;-63
2022/12/21 06:34:26;;;;;;;;;2.00;1.00;;;;;11.87;63.85;100726.06;5045953;28;45230;-62
2022/12/21 06:36:52;;;;;;;;;2.00;1.00;;;;;11.87;64.07;100736.53;5052815;28;45841;-63
2022/12/21 06:39:17;;;;;;;;;0.75;0.00;;;;;11.85;64.05;100738.34;5059038;28;45401;-62
2022/12/21 06:41:42;;;;;;;;;1.00;1.00;;;;;11.83;64.02;100737.53;5048426;28;57888;-63
2022/12/21 06:44:08;;;;;;;;;2.00;1.00;;;;;11.82;64.08;100741.91;5056014;28;45429;-62
2022/12/21 06:46:34;;;;;;;;;3.75;2.00;;;;;11.79;63.94;100736.78;5047749;28;45639;-63
2022/12/21 06:48:59;;;;;;;;;2.00;2.00;;;;;11.81;64.15;100736.72;5053857;28;45477;-62
2022/12/21 06:51:25;;;;;;;;;2.25;2.00;;;;;11.78;63.79;100735.06;5044439;28;45517;-62
2022/12/21 06:53:52;;;;;;;;;1.00;1.00;;;;;11.73;63.73;100734.34;5054254;28;45436;-62
2022/12/21 06:56:18;;;;;;;;;3.75;2.00;;;;;11.70;64.25;100729.19;5046884;28;45362;-62
2022/12/21 06:58:45;;;;;;;;;3.75;3.00;;;;;11.68;64.30;100742.34;5047340;28;45414;-63
2022/12/21 07:01:17;;;;;;;;;2.00;2.00;;;;;11.67;64.33;100745.03;5043027;28;46370;-64
2022/12/21 07:03:42;;;;;;;;;1.00;1.00;;;;;11.66;64.39;100748.56;5054215;28;45338;-64
2022/12/21 07:06:09;;;;;;;;;2.00;1.00;;;;;11.66;64.09;100748.56;5047281;28;45395;-64
2022/12/21 07:08:35;;;;;;;;;5.50;3.00;;;;;11.64;64.33;100750.38;5047275;28;45273;-64
2022/12/21 07:11:05;;;;;;;;;3.00;2.00;;;;;11.65;64.40;100754.69;5049240;28;55095;-64
2022/12/21 07:13:31;;;;;;;;;3.50;3.00;;;;;11.65;64.42;100762.56;5043207;28;45359;-63
2022/12/21 07:15:57;;;;;;;;;2.25;2.25;;;;;11.63;63.94;100754.75;5043388;28;45538;-64
2022/12/21 07:18:23;;;;;;;;;2.00;1.75;;;;;11.61;64.04;100755.72;5039696;28;50440;-62
2022/12/21 07:20:48;;;;;;;;;3.50;3.00;;;;;11.58;64.13;100754.06;5045067;28;45478;-62
2022/12/21 07:23:14;;;;;;;;;3.00;2.00;;;;;11.56;64.06;100753.22;5051578;28;45307;-62
2022/12/21 07:25:40;;;;;;;;;2.25;2.00;;;;;11.54;63.95;100757.66;5050001;28;45482;-62
2022/12/21 07:28:05;;;;;;;;;6.00;3.50;;;;;11.51;64.24;100745.53;5047467;28;45344;-62
2022/12/21 07:30:31;;;;;;;;;4.00;2.75;;;;;11.48;64.11;100750.00;5050161;28;61268;-63
2022/12/21 07:32:56;;;;;;;;;4.00;2.00;;;;;11.48;64.21;100750.84;5058359;28;45256;-62
2022/12/21 07:35:23;;;;;;;;;6.50;3.25;;;;;11.42;64.38;100743.19;5049464;28;45411;-62
2022/12/21 07:37:49;;;;;;;;;4.25;4.00;;;;;11.47;64.38;100762.22;5044814;28;45655;-61
2022/12/21 07:40:18;;;;;;;;;2.75;2.75;;;;;11.47;64.21;100762.22;5041081;28;46186;-61
2022/12/21 07:42:46;;;;;;;;;5.00;3.00;;;;;11.47;64.23;100767.47;5043689;28;45364;-62
2022/12/21 07:45:13;;;;;;;;;2.75;2.75;;;;;11.48;64.07;100774.44;5051278;28;45392;-62
2022/12/21 07:47:39;;;;;;;;;6.00;2.75;;;;;11.47;63.80;100779.72;5041344;28;45625;-62
2022/12/21 07:50:07;;;;;;;;;5.50;2.50;;;;;11.48;63.98;100778.81;5038662;28;46388;-62
2022/12/21 07:52:35;;;;;;;;;5.00;3.25;;;;;11.48;64.11;100784.06;5047726;28;45729;-62
2022/12/21 07:55:00;;;;;;;;;3.75;3.00;;;;;11.48;64.02;100790.16;5047041;28;45989;-62
2022/12/21 07:57:25;;;;;;;;;5.00;5.00;;;;;11.48;64.26;100781.44;5039254;28;45228;-62
2022/12/21 07:59:51;;;;;;;;;4.25;2.25;;;;;11.46;63.74;100778.88;5052542;28;65902;-63
2022/12/21 08:02:17;;;;;;;;;9.00;5.00;;;;;11.47;64.00;100792.81;5040625;28;65231;-62
2022/12/21 08:04:42;;;;;;;;;5.50;3.75;;;;;11.43;63.75;100791.19;5043976;28;45542;-62
2022/12/21 08:07:08;;;;;;;;;6.25;3.25;;;;;11.39;63.92;100793.91;5046104;28;45427;-62
2022/12/21 08:09:34;;;;;;;;;5.75;4.00;;;;;11.38;64.28;100788.69;5042470;28;46906;-62
2022/12/21 08:11:59;;;;;;;;;3.50;3.50;;;;;11.37;64.22;100793.09;5046283;28;45322;-63
2022/12/21 08:14:24;;;;;;;;;6.00;4.25;;;;;11.36;64.25;100786.13;5051995;28;45388;-63
2022/12/21 08:16:50;;;;;;;;;5.50;3.00;;;;;11.40;63.95;100792.13;5048145;28;59187;-64
2022/12/21 08:19:15;;;;;;;;;6.00;4.50;;;;;11.42;64.41;100789.47;5042825;28;59946;-63
2022/12/21 08:21:40;;;;;;;;;6.50;5.00;;;;;11.44;64.17;100791.16;5048229;28;64191;-65
2022/12/21 08:24:06;;;;;;;;;5.75;4.25;;;;;11.45;63.83;100789.38;5051629;28;45486;-66
2022/12/21 08:26:31;;;;;;;;;7.25;5.00;;;;;11.43;64.05;100789.44;5043557;28;45513;-67
2022/12/21 08:28:57;;;;;;;;;5.25;3.75;;;;;11.46;63.99;100788.50;5038442;28;64187;-67
2022/12/21 08:31:22;;;;;;;;;3.25;2.00;;;;;11.44;64.13;100790.28;5042677;28;45540;-65
2022/12/21 08:33:48;;;;;;;;;5.50;5.00;;;;;11.47;63.92;100800.69;5051486;28;45480;-65
2022/12/21 08:36:15;;;;;;;;;4.75;4.00;;;;;11.50;63.92;100790.13;5044342;28;45453;-65
2022/12/21 08:38:41;;;;;;;;;5.00;5.00;;;;;11.50;63.90;100788.34;5024513;28;48139;-64
2022/12/21 08:41:06;;;;;;;;;5.75;5.00;;;;;11.51;64.02;100781.31;5050326;28;45257;-65
2022/12/21 08:43:34;;;;;;;;;5.25;2.00;;;;;11.54;63.81;100794.34;5046932;28;45589;-65
2022/12/21 08:46:03;;;;;;;;;6.50;4.00;;;;;11.56;63.96;100793.41;5046310;28;45469;-64
2022/12/21 08:48:28;;;;;;;;;9.00;6.00;;;;;11.59;63.96;100790.69;5042300;28;45482;-64
2022/12/21 08:50:53;;;;;;;;;6.00;5.00;;;;;11.62;63.85;100805.47;5047420;28;45465;-64
2022/12/21 08:53:19;;;;;;;;;6.25;5.00;;;;;11.65;64.09;100807.13;5052463;28;62739;-64
2022/12/21 08:55:45;;;;;;;;;7.75;5.00;;;;;11.65;63.68;100804.50;5052378;28;46463;-64
2022/12/21 08:58:10;;;;;;;;;8.00;3.25;;;;;11.65;63.85;100801.88;5042883;28;46134;-65
2022/12/21 09:00:36;;;;;;;;;7.25;4.50;;;;;11.66;64.04;100804.47;5043715;28;64463;-64
2022/12/21 09:03:06;;;;;;;;;8.00;6.00;;;;;11.70;64.07;100789.50;5045883;28;45263;-64
2022/12/21 09:05:32;;;;;;;;;12.00;7.00;;;;;11.72;63.92;100778.06;5045114;28;45695;-64
2022/12/21 09:07:57;;;;;;;;;5.75;5.00;;;;;11.75;63.52;100777.09;5050630;28;46326;-65
2022/12/21 09:10:22;;;;;;;;;4.50;4.00;;;;;11.77;63.57;100777.91;5051207;28;45342;-64
2022/12/21 09:12:48;;;;;;;;;8.75;4.00;;;;;11.79;63.48;100781.34;5054922;28;53913;-64
2022/12/21 09:15:13;;;;;;;;;5.75;4.25;;;;;11.81;63.83;100786.53;5057500;28;59584;-64
2022/12/21 09:17:38;;;;;;;;;6.25;2.00;;;;;11.83;63.52;100792.59;5058312;28;64327;-64
2022/12/21 09:20:05;;;;;;;;;7.50;3.00;;;;;11.83;63.58;100789.97;5050007;28;45417;-64
2022/12/21 09:22:30;;;;;;;;;4.25;3.00;;;;;11.82;63.24;100786.50;5048746;28;45285;-64
2022/12/21 09:24:55;;;;;;;;;4.00;4.00;;;;;11.82;63.39;100783.88;5052336;28;45488;-64
2022/12/21 09:27:21;;;;;;;;;7.00;3.50;;;;;11.82;63.40;100780.41;5055018;28;67618;-64
2022/12/21 09:29:46;;;;;;;;;6.75;4.50;;;;;11.84;63.76;100789.06;5048415;28;45311;-64
2022/12/21 09:32:12;;;;;;;;;5.00;3.25;;;;;11.85;63.51;100789.03;5045962;28;45310;-64
2022/12/21 09:34:37;;;;;;;;;6.75;4.50;;;;;11.87;63.48;100799.47;5044762;28;47569;-64
2022/12/21 09:37:03;;;;;;;;;6.00;4.50;;;;;11.88;63.67;100795.94;5044198;28;63437;-64
2022/12/21 09:39:28;;;;;;;;;5.50;4.50;;;;;11.88;63.76;100806.41;5058392;28;64859;-64
2022/12/21 09:42:18;;;;;;;;;7.50;3.00;;;;;11.89;63.79;100819.50;5047446;28;53898;-64
2022/12/21 09:44:46;;;;;;;;;10.50;6.00;;;;;11.93;63.84;100815.91;5040444;28;45532;-65
2022/12/21 09:47:34;;;;;;;;;6.75;6.00;;;;;11.97;63.85;100798.31;5049403;28;46379;-64
2022/12/21 09:50:03;;;;;;;;;14.00;7.50;;;;;11.99;63.59;100820.09;5055394;28;45286;-64
2022/12/21 09:52:34;;;;;;;;;7.75;5.00;;;;;12.03;63.68;100823.50;5043581;28;46409;-64
2022/12/21 09:55:04;;;;;;;;;5.50;4.50;;;;;12.06;63.49;100820.78;5053342;28;45277;-64
2022/12/21 09:57:32;;;;;;;;;6.75;4.75;;;;;12.08;63.77;100817.19;5028279;28;47440;-64
2022/12/21 09:59:58;;;;;;;;;7.75;5.00;;;;;12.10;63.79;100814.50;5044100;28;45267;-64
2022/12/21 10:02:48;;;;;;;;;8.50;5.00;;;;;12.13;63.71;100825.78;5053455;28;64554;-65
2022/12/21 10:05:59;;;;;;;;;4.75;4.75;;;;;12.15;63.71;100823.94;5046415;28;45346;-64
2022/12/21 10:08:38;;;;;;;;;9.00;6.00;;;;;12.21;63.58;100833.38;5037837;28;46308;-65
2022/12/21 10:11:18;;;;;;;;;5.75;4.25;;;;;12.24;63.48;100827.19;5046250;28;45913;-64
2022/12/21 10:14:07;;;;;;;;;8.00;5.50;;;;;12.27;63.56;100840.19;5050694;28;45371;-65
2022/12/21 10:16:41;;;;;;;;;5.25;5.25;;;;;12.28;63.59;100826.19;5044111;28;45714;-65
2022/12/21 10:19:06;;;;;;;;;9.00;4.00;;;;;12.27;63.38;100832.31;5047183;28;46947;-63
2022/12/21 10:21:44;;;;;;;;;5.50;4.00;;;;;12.28;63.43;100821.78;5045873;28;45323;-63
2022/12/21 10:24:22;;;;;;;;;6.00;5.50;;;;;12.31;63.30;100815.59;5043824;28;45244;-65
2022/12/21 10:26:52;;;;;;;;;7.50;4.00;;;;;12.32;63.54;100801.53;5050301;28;45409;-64
2022/12/21 10:29:20;;;;;;;;;7.75;6.50;;;;;12.36;63.14;100805.81;5055233;28;46000;-63
2022/12/21 10:31:46;;;;;;;;;5.00;5.00;;;;;12.37;63.47;100794.38;5046661;28;45427;-65
2022/12/21 10:34:16;;;;;;;;;7.00;5.00;;;;;12.40;63.44;100794.28;5058539;28;45521;-63
2022/12/21 10:36:42;;;;;;;;;8.25;4.25;;;;;12.41;63.31;100789.88;5047362;28;45474;-63
2022/12/21 10:39:12;;;;;;;;;7.00;3.50;;;;;12.44;63.45;100798.50;5049940;28;56622;-64
2022/12/21 10:41:41;;;;;;;;;6.50;5.00;;;;;12.45;62.96;100788.88;5046887;28;45380;-64
2022/12/21 10:44:10;;;;;;;;;4.75;4.00;;;;;12.44;62.97;100772.25;5045076;28;45419;-65
2022/12/21 10:46:37;;;;;;;;;5.50;4.00;;;;;12.46;63.30;100773.06;5043920;28;45459;-64
2022/12/21 10:49:13;;;;;;;;;5.50;5.00;;;;;12.48;63.38;100762.50;5047386;28;45473;-64
2022/12/21 10:51:38;;;;;;;;;7.00;4.25;;;;;12.51;63.17;100767.66;5047206;28;45858;-64
2022/12/21 10:54:07;;;;;;;;;9.00;8.25;;;;;12.53;63.11;100756.19;5049403;28;45417;-64
2022/12/21 10:56:41;;;;;;;;;7.50;6.25;;;;;12.57;63.38;100749.09;5051371;28;45479;-64
2022/12/21 10:59:15;;;;;;;;;7.00;5.50;;;;;12.60;63.05;100748.97;5051592;28;45498;-64
2022/12/21 11:01:40;;;;;;;;;5.00;5.00;;;;;12.63;63.08;100751.50;5047404;28;45388;-64
2022/12/21 11:04:15;;;;;;;;;5.75;4.00;;;;;12.65;62.70;100747.03;5056281;28;45377;-64
2022/12/21 11:06:54;;;;;;;;;8.50;6.25;;;;;12.68;62.59;100735.59;5053605;28;45419;-63
2022/12/21 11:09:35;;;;;;;;;6.25;5.00;;;;;12.68;62.77;100739.06;5054726;28;46478;-64
2022/12/21 11:12:20;;;;;;;;;8.50;6.00;;;;;12.72;63.07;100737.19;5042651;28;45850;-64
2022/12/21 11:14:45;;;;;;;;;7.50;7.00;;;;;12.71;62.97;100738.94;5053534;28;45364;-64
2022/12/21 11:17:28;;;;;;;;;12.50;9.00;;;;;12.73;62.84;100739.75;5041645;28;45362;-64
2022/12/21 11:20:14;;;;;;;;;7.75;7.75;;;;;12.75;62.55;100728.31;5052310;28;45500;-64
2022/12/21 11:22:43;;;;;;;;;6.00;5.75;;;;;12.75;62.77;100721.31;5056072;28;45431;-64
2022/12/21 11:25:21;;;;;;;;;10.00;6.50;;;;;12.77;62.67;100710.75;5048231;28;45679;-63
2022/12/21 11:27:49;;;;;;;;;8.75;8.75;;;;;12.80;62.59;100716.75;5054127;28;45454;-63
2022/12/21 11:30:33;;;;;;;;;10.50;8.00;;;;;12.85;62.37;100709.53;5056659;28;46374;-64
2022/12/21 11:33:00;;;;;;;;;11.75;9.00;;;;;12.89;62.57;100705.03;5054786;28;45653;-63
2022/12/21 11:35:28;;;;;;;;;10.75;7.00;;;;;12.94;62.49;100710.13;5046276;28;45380;-63
2022/12/21 11:37:56;;;;;;;;;11.25;7.50;;;;;12.95;62.87;100699.56;5041509;28;45557;-64
2022/12/21 11:40:24;;;;;;;;;12.00;9.00;;;;;12.98;62.46;100699.47;5053461;28;45443;-63